Time;durP1;ratioP1;P1;durP2;ratioP2;P2;SDS_P1;SDS_P2;PMS_P1;PMS_P2;Temp;Humidity;BMP_temperature;BMP_pressure;BME280_temperature;BME280_humidity;BME280_pressure;Samples;Min_cycle;Max_cycle;Signal;HPM_P1;HPM_P2
2022/09/10 00:02:03;;;;;;;4.32;0.55;;;;;;;23.22;48.26;100760.94;4942071;29;20016;-64
2022/09/10 00:04:29;;;;;;;2.85;0.70;;;;;;;23.24;49.16;100760.69;4941896;29;20016;-66
2022/09/10 00:06:55;;;;;;;2.50;1.02;;;;;;;23.27;49.28;100766.59;4941889;29;20035;-65
2022/09/10 00:09:20;;;;;;;3.33;0.50;;;;;;;23.26;49.29;100764.91;4941857;29;20080;-65
2022/09/10 00:11:46;;;;;;;4.18;0.60;;;;;;;23.27;48.63;100769.31;4925480;29;20020;-64
2022/09/10 00:14:18;;;;;;;2.22;0.70;;;;;;;23.25;49.04;100765.97;4941771;29;20016;-66
2022/09/10 00:16:44;;;;;;;0.38;0.38;;;;;;;23.28;48.34;100761.97;4941318;29;20016;-64
2022/09/10 00:19:10;;;;;;;1.13;0.57;;;;;;;23.28;49.40;100757.34;4941767;29;20075;-66
2022/09/10 00:21:36;;;;;;;4.95;0.98;;;;;;;23.31;49.14;100762.34;4941285;29;20019;-65
2022/09/10 00:24:03;;;;;;;2.92;0.60;;;;;;;23.32;49.44;100763.19;4941556;29;20041;-67
2022/09/10 00:26:34;;;;;;;1.58;0.63;;;;;;;23.35;48.31;100758.16;4941591;29;20035;-66
2022/09/10 00:28:59;;;;;;;1.63;0.73;;;;;;;23.34;48.90;100756.47;4941683;29;20020;-64
2022/09/10 00:31:26;;;;;;;3.92;1.00;;;;;;;23.35;48.35;100751.84;4925337;29;20020;-64
2022/09/10 00:33:51;;;;;;;0.68;0.47;;;;;;;23.32;49.24;100746.78;4941571;29;20031;-65
2022/09/10 00:36:22;;;;;;;3.15;0.75;;;;;;;23.32;48.45;100753.13;4941127;29;20052;-65
2022/09/10 00:38:49;;;;;;;1.40;0.75;;;;;;;23.34;49.30;100756.47;4941456;29;20063;-66
2022/09/10 00:41:15;;;;;;;0.57;0.47;;;;;;;23.31;49.23;100751.41;4941470;29;20040;-65
2022/09/10 00:43:54;;;;;;;3.67;1.00;;;;;;;23.25;48.62;100755.03;4940991;29;20032;-66
2022/09/10 00:46:40;;;;;;;1.95;0.70;;;;;;;23.16;49.22;100748.09;4941514;29;20035;-64
2022/09/10 00:49:13;;;;;;;1.20;0.73;;;;;;;23.08;48.99;100745.59;4941489;29;20016;-66
2022/09/10 00:51:39;;;;;;;8.90;1.08;;;;;;;23.04;49.92;100749.78;4941279;29;20029;-65
2022/09/10 00:54:05;;;;;;;2.60;1.10;;;;;;;23.04;49.50;100749.78;4940945;29;20024;-66
2022/09/10 00:56:32;;;;;;;3.88;0.80;;;;;;;23.05;50.07;100746.03;4940800;29;20039;-63
2022/09/10 00:58:57;;;;;;;1.95;1.15;;;;;;;23.07;49.65;100749.38;4940907;29;20036;-62
2022/09/10 01:01:23;;;;;;;4.05;0.85;;;;;;;23.09;49.17;100750.00;4940905;29;20008;-65
2022/09/10 01:03:48;;;;;;;3.33;0.85;;;;;;;23.07;50.23;100755.69;4941319;29;20023;-64
2022/09/10 01:06:14;;;;;;;2.53;0.95;;;;;;;23.09;49.19;100759.03;4941349;29;20016;-65
2022/09/10 01:08:40;;;;;;;2.25;0.80;;;;;;;23.09;49.89;100760.94;4940740;29;20064;-66
2022/09/10 01:11:32;;;;;;;2.78;0.70;;;;;;;23.10;50.27;100762.63;4944328;29;20024;-62
2022/09/10 01:14:17;;;;;;;5.32;0.98;;;;;;;23.13;50.30;100764.94;4935586;29;20028;-65
2022/09/10 01:17:26;;;;;;;2.38;0.82;;;;;;;23.17;49.29;100763.47;4944321;29;20028;-65
2022/09/10 01:20:00;;;;;;;2.67;1.13;;;;;;;23.20;48.99;100771.22;4937890;29;20032;-65
2022/09/10 01:23:03;;;;;;;1.60;0.95;;;;;;;23.21;49.57;100761.97;4944601;29;20024;-64
2022/09/10 01:25:39;;;;;;;2.60;0.85;;;;;;;23.20;49.22;100763.00;4944144;29;20126;-64
2022/09/10 01:28:14;;;;;;;3.88;1.10;;;;;;;23.21;50.06;100759.22;4944516;29;20031;-67
2022/09/10 01:30:46;;;;;;;1.52;0.77;;;;;;;23.23;49.69;100765.31;4944036;29;20027;-66
2022/09/10 01:33:48;;;;;;;3.57;1.20;;;;;;;23.22;49.29;100758.19;4944496;29;20043;-65
2022/09/10 01:36:19;;;;;;;6.33;1.10;;;;;;;23.19;49.81;100769.56;4908662;29;20271;-65
2022/09/10 01:38:45;;;;;;;1.85;0.85;;;;;;;23.17;49.57;100758.00;4924263;29;20044;-65
2022/09/10 01:41:12;;;;;;;4.35;0.80;;;;;;;23.21;49.69;100767.44;4924418;29;20088;-65
2022/09/10 01:43:37;;;;;;;4.25;1.13;;;;;;;23.23;49.52;100768.06;4893066;29;20036;-67
2022/09/10 01:46:32;;;;;;;2.22;1.00;;;;;;;23.23;50.54;100770.78;4924309;29;20021;-64
2022/09/10 01:49:35;;;;;;;6.68;1.10;;;;;;;23.21;49.57;100767.44;4924302;29;20024;-67
2022/09/10 01:52:35;;;;;;;6.05;1.00;;;;;;;23.21;50.10;100772.91;4924365;29;20020;-67
2022/09/10 01:55:40;;;;;;;4.97;0.93;;;;;;;23.21;50.32;100759.22;4924306;29;20036;-67
2022/09/10 01:58:22;;;;;;;1.48;0.65;;;;;;;23.23;49.42;100761.78;4924163;29;20140;-66
2022/09/10 02:01:13;;;;;;;1.65;1.00;;;;;;;23.24;49.39;100753.34;4908356;29;20012;-64
2022/09/10 02:03:42;;;;;;;2.28;0.85;;;;;;;23.25;50.41;100756.94;4917762;29;20048;-66
2022/09/10 02:06:11;;;;;;;3.47;1.00;;;;;;;23.27;49.47;100750.19;4908457;29;20100;-67
2022/09/10 02:08:38;;;;;;;3.90;1.20;;;;;;;23.29;49.57;100753.53;4908440;29;20041;-65
2022/09/10 02:11:05;;;;;;;2.10;0.88;;;;;;;23.31;49.96;100740.47;4923369;29;20024;-65
2022/09/10 02:13:31;;;;;;;3.15;1.23;;;;;;;23.32;49.69;100750.38;4943755;29;20027;-65
2022/09/10 02:15:58;;;;;;;2.85;1.95;;;;;;;23.31;49.36;100751.41;4943797;29;20053;-64
2022/09/10 02:18:24;;;;;;;3.13;0.90;;;;;;;23.31;50.18;100743.22;4943321;29;20016;-66
2022/09/10 02:20:50;;;;;;;4.10;1.00;;;;;;;23.31;50.35;100745.13;4943072;29;20012;-66
2022/09/10 02:23:18;;;;;;;3.35;1.20;;;;;;;23.30;50.33;100746.19;4943199;29;20023;-64
2022/09/10 02:25:44;;;;;;;2.53;1.27;;;;;;;23.29;49.45;100748.06;4943142;29;20012;-65
2022/09/10 02:28:10;;;;;;;2.75;0.88;;;;;;;23.30;49.90;100744.28;4943059;29;20027;-66
2022/09/10 02:30:35;;;;;;;5.15;1.02;;;;;;;23.28;49.79;100745.56;4943498;29;20059;-65
2022/09/10 02:33:00;;;;;;;8.45;1.65;;;;;;;23.28;50.20;100749.16;4943449;29;20023;-67
2022/09/10 02:35:26;;;;;;;1.92;0.98;;;;;;;23.28;49.59;100745.56;4942944;29;20012;-66
2022/09/10 02:37:52;;;;;;;6.25;1.50;;;;;;;23.27;49.47;100739.25;4943119;29;20084;-66
2022/09/10 02:40:18;;;;;;;9.85;1.23;;;;;;;23.28;49.59;100740.94;4942793;29;20040;-64
2022/09/10 02:42:45;;;;;;;6.82;1.50;;;;;;;23.30;49.98;100744.28;4943250;29;20027;-64
2022/09/10 02:45:12;;;;;;;4.68;1.30;;;;;;;23.31;49.45;100740.47;4942666;29;20012;-67
2022/09/10 02:47:37;;;;;;;3.42;1.25;;;;;;;23.33;49.81;100743.03;4943282;29;20024;-65
2022/09/10 02:50:03;;;;;;;2.60;1.15;;;;;;;23.33;49.64;100752.06;4942982;29;20019;-66
2022/09/10 02:52:28;;;;;;;5.00;1.45;;;;;;;23.32;49.55;100747.66;4943136;29;20040;-67
2022/09/10 02:54:53;;;;;;;4.72;1.20;;;;;;;23.31;50.44;100743.22;4942550;29;20023;-66
2022/09/10 02:57:19;;;;;;;5.85;1.35;;;;;;;23.31;49.55;100750.59;4943016;29;20027;-67
2022/09/10 02:59:45;;;;;;;2.95;1.35;;;;;;;23.28;50.50;100745.56;4942868;29;20023;-64
2022/09/10 03:02:10;;;;;;;8.77;1.40;;;;;;;23.28;49.88;100746.41;4943003;29;20024;-65
2022/09/10 03:04:35;;;;;;;3.53;1.30;;;;;;;23.26;50.72;100743.03;4942364;29;20012;-65
2022/09/10 03:07:01;;;;;;;5.80;1.13;;;;;;;23.25;50.04;100746.84;4942833;29;20024;-66
2022/09/10 03:09:27;;;;;;;5.72;1.50;;;;;;;23.24;50.15;100755.22;4942845;29;20012;-65
2022/09/10 03:11:53;;;;;;;5.70;1.50;;;;;;;23.22;50.28;100743.69;4942643;29;20016;-65
2022/09/10 03:14:21;;;;;;;4.85;1.27;;;;;;;23.22;50.13;100750.00;4942756;29;20129;-66
2022/09/10 03:16:47;;;;;;;4.45;1.52;;;;;;;23.23;50.66;100746.19;4942683;29;20012;-64
2022/09/10 03:19:13;;;;;;;3.85;1.95;;;;;;;23.23;50.77;100748.91;4942079;29;20023;-65
2022/09/10 03:21:42;;;;;;;4.18;1.27;;;;;;;23.22;49.86;100744.53;4942554;29;20017;-65
2022/09/10 03:24:07;;;;;;;2.13;1.15;;;;;;;23.21;50.61;100745.56;4942081;29;20036;-65
2022/09/10 03:26:32;;;;;;;2.53;1.08;;;;;;;23.22;49.90;100755.47;4942488;29;20043;-66
2022/09/10 03:28:58;;;;;;;2.92;1.67;;;;;;;23.24;51.00;100756.06;4942549;29;20048;-66
2022/09/10 03:31:23;;;;;;;8.20;1.80;;;;;;;23.24;50.80;100745.16;4941695;29;20023;-66
2022/09/10 03:33:49;;;;;;;7.93;1.90;;;;;;;23.25;50.33;100752.31;4941931;29;20020;-67
2022/09/10 03:36:16;;;;;;;9.75;1.45;;;;;;;23.25;50.23;100751.47;4942231;29;20020;-66
2022/09/10 03:38:42;;;;;;;3.50;0.80;;;;;;;23.28;50.62;100740.94;4942148;29;20113;-66
2022/09/10 03:41:08;;;;;;;3.72;1.45;;;;;;;23.29;49.84;100739.88;4941700;29;20016;-66
2022/09/10 03:43:34;;;;;;;6.28;1.65;;;;;;;23.28;50.18;100743.69;4941750;29;20028;-66
2022/09/10 03:45:59;;;;;;;3.75;1.90;;;;;;;23.29;49.82;100737.13;4942168;29;20016;-65
2022/09/10 03:48:24;;;;;;;3.80;1.35;;;;;;;23.31;50.65;100739.66;4925745;29;20024;-66
2022/09/10 03:50:50;;;;;;;3.67;1.05;;;;;;;23.30;50.38;100735.25;4942089;29;20020;-65
2022/09/10 03:53:16;;;;;;;6.85;1.90;;;;;;;23.33;49.71;100743.03;4942005;29;20027;-66
2022/09/10 03:55:43;;;;;;;2.35;1.42;;;;;;;23.32;50.70;100739.44;4942077;29;20019;-65
2022/09/10 03:58:08;;;;;;;3.78;1.60;;;;;;;23.32;50.74;100742.19;4941973;29;20039;-66
2022/09/10 04:00:34;;;;;;;7.55;1.80;;;;;;;23.33;49.77;100753.97;4941944;29;20009;-64
2022/09/10 04:02:59;;;;;;;5.35;1.60;;;;;;;23.33;50.66;100732.94;4941836;29;20036;-64
2022/09/10 04:05:26;;;;;;;3.47;1.38;;;;;;;23.31;50.40;100735.03;4941949;29;20020;-65
2022/09/10 04:07:53;;;;;;;4.68;1.67;;;;;;;23.31;50.38;100732.28;4941339;29;20047;-63
2022/09/10 04:10:19;;;;;;;3.63;1.80;;;;;;;23.30;50.74;100741.56;4941692;29;20036;-65
2022/09/10 04:12:44;;;;;;;1.98;1.45;;;;;;;23.26;50.46;100726.63;4941256;29;20036;-66
2022/09/10 04:15:11;;;;;;;8.48;1.85;;;;;;;23.26;50.27;100733.97;4941805;29;20040;-66
2022/09/10 04:17:36;;;;;;;1.30;1.20;;;;;;;23.27;50.76;100739.25;4941691;29;20138;-67
2022/09/10 04:20:02;;;;;;;7.85;1.83;;;;;;;23.27;49.92;100728.31;4941169;29;20052;-65
2022/09/10 04:22:27;;;;;;;3.05;1.60;;;;;;;23.29;49.82;100739.03;4941775;29;20020;-65
2022/09/10 04:24:54;;;;;;;6.63;1.90;;;;;;;23.31;49.90;100739.66;4941756;29;20035;-66
2022/09/10 04:27:20;;;;;;;3.40;1.30;;;;;;;23.32;50.06;100742.19;4941635;29;20027;-66
2022/09/10 04:29:46;;;;;;;4.30;1.70;;;;;;;23.34;50.50;100737.31;4941158;29;20023;-66
2022/09/10 04:32:11;;;;;;;4.50;1.45;;;;;;;23.35;50.96;100732.69;4941606;29;20020;-65
2022/09/10 04:34:36;;;;;;;4.38;1.00;;;;;;;23.37;50.19;100736.91;4941672;29;20016;-65
2022/09/10 04:37:02;;;;;;;5.60;1.35;;;;;;;23.39;49.82;100742.19;4941451;29;20020;-67
2022/09/10 04:39:27;;;;;;;7.88;1.88;;;;;;;23.39;50.21;100737.59;4940749;29;20040;-66
2022/09/10 04:41:52;;;;;;;3.92;1.27;;;;;;;23.38;50.43;100730.41;4941494;29;20024;-66
2022/09/10 04:44:18;;;;;;;5.57;1.50;;;;;;;23.40;49.76;100739.25;4941556;29;20051;-66
2022/09/10 04:46:44;;;;;;;6.30;1.13;;;;;;;23.40;50.23;100733.78;4945408;29;20072;-67
2022/09/10 04:49:10;;;;;;;3.08;2.05;;;;;;;23.39;50.58;100742.19;4945131;29;20057;-66
2022/09/10 04:51:35;;;;;;;8.20;1.60;;;;;;;23.40;50.51;100746.59;4944644;29;20016;-65
2022/09/10 04:54:01;;;;;;;5.25;1.30;;;;;;;23.40;50.74;100738.38;4945169;29;20020;-66
2022/09/10 04:56:27;;;;;;;3.92;2.22;;;;;;;23.38;49.89;100735.88;4928831;29;20028;-66
2022/09/10 04:58:52;;;;;;;5.32;1.35;;;;;;;23.39;50.90;100743.03;4944681;29;20040;-66
2022/09/10 05:01:17;;;;;;;2.30;1.48;;;;;;;23.39;49.75;100743.03;4945180;29;20035;-65
2022/09/10 05:03:43;;;;;;;5.30;1.92;;;;;;;23.39;49.88;100744.94;4945054;29;20100;-67
2022/09/10 05:06:08;;;;;;;5.97;1.98;;;;;;;23.39;50.01;100745.78;4945070;29;20024;-67
2022/09/10 05:08:33;;;;;;;3.75;1.65;;;;;;;23.40;49.97;100747.44;4944347;29;20016;-67
2022/09/10 05:11:01;;;;;;;3.13;1.90;;;;;;;23.40;50.38;100732.94;4944621;29;20119;-66
2022/09/10 05:13:29;;;;;;;2.40;1.45;;;;;;;23.39;50.40;100743.03;4944706;29;20096;-64
2022/09/10 05:15:56;;;;;;;4.43;2.08;;;;;;;23.39;49.93;100740.31;4944685;29;20016;-66
2022/09/10 05:18:22;;;;;;;3.35;1.85;;;;;;;23.39;50.53;100748.50;4944228;29;20043;-65
2022/09/10 05:20:47;;;;;;;3.85;1.65;;;;;;;23.37;50.09;100739.63;4944771;29;20072;-65
2022/09/10 05:23:13;;;;;;;5.10;2.08;;;;;;;23.39;50.58;100742.19;4944689;29;20016;-66
2022/09/10 05:25:38;;;;;;;5.45;1.77;;;;;;;23.39;50.42;100751.25;4944653;29;20043;-65
2022/09/10 05:28:04;;;;;;;8.18;1.73;;;;;;;23.40;49.74;100755.66;4944581;29;20012;-66
2022/09/10 05:30:31;;;;;;;5.53;1.67;;;;;;;23.42;50.78;100750.78;4944446;29;20016;-64
2022/09/10 05:32:58;;;;;;;9.80;1.75;;;;;;;23.44;49.81;100751.44;4944655;29;20036;-66
2022/09/10 05:35:23;;;;;;;1.98;1.40;;;;;;;23.45;50.08;100746.81;4944472;29;20106;-66
2022/09/10 05:37:48;;;;;;;3.42;1.73;;;;;;;23.44;50.30;100759.66;4944367;29;20016;-66
2022/09/10 05:40:14;;;;;;;7.80;2.45;;;;;;;23.47;49.96;100761.94;4944299;29;20024;-66
2022/09/10 05:42:39;;;;;;;6.13;1.88;;;;;;;23.47;50.85;100751.00;4943914;29;20036;-66
2022/09/10 05:45:05;;;;;;;3.65;1.40;;;;;;;23.47;50.83;100747.44;4943894;29;20044;-66
2022/09/10 05:47:30;;;;;;;4.13;1.58;;;;;;;23.50;50.46;100761.53;4944284;29;20024;-66
2022/09/10 05:49:56;;;;;;;4.97;1.52;;;;;;;23.53;49.91;100757.53;4944099;29;20032;-65
2022/09/10 05:52:22;;;;;;;5.85;1.83;;;;;;;23.54;50.85;100773.69;4944190;29;20043;-65
2022/09/10 05:54:47;;;;;;;4.15;1.45;;;;;;;23.54;50.67;100762.75;4943818;29;20016;-65
2022/09/10 05:57:12;;;;;;;3.75;1.85;;;;;;;23.55;50.85;100764.44;4943866;29;20048;-67
2022/09/10 05:59:38;;;;;;;8.40;2.17;;;;;;;23.54;50.88;100768.22;4943439;29;20051;-67
2022/09/10 06:02:04;;;;;;;6.63;1.60;;;;;;;23.54;50.92;100762.75;4944045;29;20020;-67
2022/09/10 06:04:29;;;;;;;4.75;1.70;;;;;;;23.52;50.75;100775.81;4943921;29;20032;-65
2022/09/10 06:06:55;;;;;;;2.60;1.90;;;;;;;23.47;51.05;100781.09;4943978;29;20028;-66
2022/09/10 06:09:20;;;;;;;3.17;1.40;;;;;;;23.45;50.42;100774.97;4943909;29;20019;-64
2022/09/10 06:11:48;;;;;;;4.38;1.83;;;;;;;23.45;50.37;100780.44;4943194;29;20024;-66
2022/09/10 06:14:14;;;;;;;6.15;1.80;;;;;;;23.46;51.29;100773.94;4927475;29;20024;-66
2022/09/10 06:16:40;;;;;;;6.82;1.98;;;;;;;23.43;51.37;100771.63;4943309;29;20016;-66
2022/09/10 06:19:07;;;;;;;4.95;2.28;;;;;;;23.41;51.30;100768.28;4943713;29;20020;-66
2022/09/10 06:21:32;;;;;;;6.00;2.10;;;;;;;23.38;51.26;100767.84;4943775;29;20079;-66
2022/09/10 06:23:58;;;;;;;6.38;2.10;;;;;;;23.35;50.85;100785.50;4943112;29;20043;-67
2022/09/10 06:26:24;;;;;;;5.97;1.80;;;;;;;23.35;51.07;100785.50;4943131;29;20083;-66
2022/09/10 06:28:49;;;;;;;4.15;1.63;;;;;;;23.35;51.47;100796.44;4943518;29;20023;-67
2022/09/10 06:31:18;;;;;;;5.22;2.20;;;;;;;23.33;50.71;100793.06;4943499;29;20524;-68
2022/09/10 06:33:45;;;;;;;3.40;1.88;;;;;;;23.31;51.74;100791.63;4943428;29;20041;-65
2022/09/10 06:36:11;;;;;;;3.03;1.95;;;;;;;23.29;50.89;100793.69;4943212;29;20031;-68
2022/09/10 06:38:37;;;;;;;4.47;2.25;;;;;;;23.24;52.03;100799.81;4942154;29;20044;-68
2022/09/10 06:41:05;;;;;;;6.10;2.58;;;;;;;23.18;51.43;100803.38;4938586;29;20060;-67
2022/09/10 06:43:32;;;;;;;5.20;3.45;;;;;;;23.12;51.16;100805.06;4936350;29;20020;-67
2022/09/10 06:45:58;;;;;;;8.18;2.83;;;;;;;23.10;52.24;100809.06;4939316;29;20023;-68
2022/09/10 06:48:27;;;;;;;7.25;2.50;;;;;;;23.05;51.46;100797.94;4942006;29;20040;-67
2022/09/10 06:50:54;;;;;;;6.55;2.35;;;;;;;23.03;51.24;100803.59;4941820;29;20060;-67
2022/09/10 06:53:21;;;;;;;13.40;2.85;;;;;;;23.02;51.64;100806.56;4939149;29;20019;-68
2022/09/10 06:55:52;;;;;;;5.38;2.15;;;;;;;22.96;52.07;100810.13;4937994;29;20032;-67
2022/09/10 06:58:19;;;;;;;3.38;2.75;;;;;;;22.95;51.39;100812.00;4937209;29;20035;-68
2022/09/10 07:00:46;;;;;;;7.80;3.03;;;;;;;22.91;52.16;100818.97;4940817;29;20020;-67
2022/09/10 07:03:14;;;;;;;5.07;2.33;;;;;;;22.92;52.68;100828.81;4942656;29;20024;-66
2022/09/10 07:05:40;;;;;;;6.60;2.80;;;;;;;22.94;51.67;100834.09;4942755;29;20018;-67
2022/09/10 07:08:05;;;;;;;5.05;2.55;;;;;;;22.95;52.50;100822.94;4941917;29;20016;-65
2022/09/10 07:10:31;;;;;;;5.68;2.70;;;;;;;23.04;51.94;100820.84;4942132;29;20020;-67
2022/09/10 07:12:56;;;;;;;6.13;3.20;;;;;;;23.14;52.35;100821.28;4942833;29;20055;-68
2022/09/10 07:15:22;;;;;;;9.48;3.17;;;;;;;23.22;51.45;100818.31;4942668;29;20012;-66
2022/09/10 07:17:47;;;;;;;5.55;2.83;;;;;;;23.27;51.98;100815.78;4942749;29;20020;-66
2022/09/10 07:20:13;;;;;;;8.98;3.38;;;;;;;23.33;51.96;100820.41;4942496;29;20039;-66
2022/09/10 07:22:39;;;;;;;5.93;3.35;;;;;;;23.36;52.37;100819.16;4942154;29;20032;-67
2022/09/10 07:25:06;;;;;;;7.05;3.47;;;;;;;23.37;51.97;100824.41;4942085;29;20044;-65
2022/09/10 07:27:32;;;;;;;6.60;3.03;;;;;;;23.38;51.83;100817.91;4942077;29;20020;-67
2022/09/10 07:29:57;;;;;;;6.70;3.53;;;;;;;23.41;51.51;100822.13;4941924;29;20022;-66
2022/09/10 07:32:23;;;;;;;5.68;2.70;;;;;;;23.41;51.27;100817.50;4942431;29;20016;-68
2022/09/10 07:34:48;;;;;;;7.55;3.20;;;;;;;23.42;51.65;100819.16;4942521;29;20055;-66
2022/09/10 07:37:16;;;;;;;3.58;2.80;;;;;;;23.45;52.33;100826.13;4942227;29;20012;-65
2022/09/10 07:39:42;;;;;;;5.07;2.83;;;;;;;23.48;51.80;100829.25;4942076;29;20047;-67
2022/09/10 07:42:08;;;;;;;4.75;2.88;;;;;;;23.53;51.47;100821.25;4942179;29;20012;-65
2022/09/10 07:44:33;;;;;;;8.05;3.35;;;;;;;23.56;52.11;100822.72;4942209;29;20042;-66
2022/09/10 07:47:00;;;;;;;7.30;3.65;;;;;;;23.59;51.61;100817.66;4942205;29;20028;-66
2022/09/10 07:49:26;;;;;;;8.30;3.03;;;;;;;23.62;51.18;100821.84;4942149;29;20016;-66
2022/09/10 07:51:53;;;;;;;9.27;3.45;;;;;;;23.62;51.57;100819.97;4941978;29;20043;-65
2022/09/10 07:54:18;;;;;;;10.18;3.70;;;;;;;23.64;51.56;100823.34;4942144;29;20013;-65
2022/09/10 07:56:44;;;;;;;8.80;3.65;;;;;;;23.63;51.48;100827.13;4941991;29;20020;-67
2022/09/10 07:59:10;;;;;;;11.57;4.25;;;;;;;23.63;51.56;100834.47;4941542;29;20020;-64
2022/09/10 08:01:36;;;;;;;5.10;3.65;;;;;;;23.60;51.97;100819.34;4941956;29;20035;-65
2022/09/10 08:04:02;;;;;;;7.40;4.63;;;;;;;23.61;51.52;100826.50;4942043;29;20048;-65
2022/09/10 08:06:27;;;;;;;8.60;4.60;;;;;;;23.56;51.91;100826.28;4941825;29;20024;-65
2022/09/10 08:08:52;;;;;;;8.30;4.10;;;;;;;23.55;51.95;100835.56;4941350;29;20301;-65
2022/09/10 08:11:19;;;;;;;11.32;4.28;;;;;;;23.49;52.47;100841.03;4941666;29;20032;-66
2022/09/10 08:13:49;;;;;;;7.38;4.53;;;;;;;23.39;51.73;100833.28;4933730;29;20109;-70
2022/09/10 08:16:22;;;;;;;6.35;4.15;;;;;;;23.29;52.24;100841.03;4932046;29;20064;-69
2022/09/10 08:18:48;;;;;;;13.02;4.15;;;;;;;23.23;52.39;100847.31;4937022;29;20028;-67
2022/09/10 08:21:15;;;;;;;8.50;4.82;;;;;;;23.17;53.08;100848.19;4941443;29;20016;-67
2022/09/10 08:23:42;;;;;;;12.93;4.70;;;;;;;23.10;52.59;100842.72;4941257;29;20032;-67
2022/09/10 08:26:08;;;;;;;10.13;4.70;;;;;;;23.04;53.33;100859.94;4941683;29;20052;-67
2022/09/10 08:28:34;;;;;;;11.90;4.85;;;;;;;23.04;53.31;100859.94;4941306;29;20044;-66
2022/09/10 08:31:01;;;;;;;9.95;5.38;;;;;;;23.08;53.44;100860.38;4941540;29;20048;-65
2022/09/10 08:33:27;;;;;;;11.10;5.25;;;;;;;23.10;53.55;100855.53;4941105;29;20020;-66
2022/09/10 08:35:57;;;;;;;11.27;4.47;;;;;;;23.09;53.08;100862.03;4941596;29;20016;-66
2022/09/10 08:38:30;;;;;;;9.27;4.78;;;;;;;23.09;53.60;100865.63;4941040;29;20020;-66
2022/09/10 08:40:58;;;;;;;8.43;4.20;;;;;;;23.11;52.83;100866.28;4941602;29;20032;-67
2022/09/10 08:43:41;;;;;;;11.73;5.10;;;;;;;23.13;52.81;100872.38;4941150;29;20032;-66
2022/09/10 08:46:15;;;;;;;8.38;4.13;;;;;;;23.14;53.72;100856.81;4941120;29;20020;-68
2022/09/10 08:48:42;;;;;;;8.82;5.90;;;;;;;23.16;53.03;100862.91;4925171;29;20026;-67
2022/09/10 08:51:17;;;;;;;10.95;4.65;;;;;;;23.12;53.75;100857.00;4940832;29;20064;-67
2022/09/10 08:53:54;;;;;;;10.35;5.15;;;;;;;23.14;52.95;100871.28;4940869;29;20016;-67
2022/09/10 08:56:21;;;;;;;7.60;4.80;;;;;;;23.13;53.77;100868.78;4940534;29;20128;-68
2022/09/10 08:58:46;;;;;;;11.52;5.20;;;;;;;23.14;52.97;100865.81;4938447;29;20028;-67
2022/09/10 09:01:38;;;;;;;12.38;4.60;;;;;;;23.19;52.85;100865.22;4939887;29;20084;-69
2022/09/10 09:04:08;;;;;;;10.45;4.53;;;;;;;23.23;53.84;100871.13;4936223;29;20044;-69
2022/09/10 09:06:43;;;;;;;6.45;4.18;;;;;;;23.26;53.57;100876.13;4940891;29;20012;-67
2022/09/10 09:09:11;;;;;;;12.88;4.75;;;;;;;23.28;53.81;100874.91;4940678;29;20045;-68
2022/09/10 09:11:42;;;;;;;10.90;5.07;;;;;;;23.30;52.88;100878.25;4940573;29;20043;-67
2022/09/10 09:14:14;;;;;;;7.00;4.32;;;;;;;23.28;52.96;100888.56;4941219;29;20020;-66
2022/09/10 09:17:01;;;;;;;8.70;4.40;;;;;;;23.27;54.03;100888.75;4941276;29;20028;-67
2022/09/10 09:19:33;;;;;;;9.48;4.45;;;;;;;23.28;53.08;100885.84;4941233;29;20024;-67
2022/09/10 09:22:18;;;;;;;12.95;4.80;;;;;;;23.30;53.92;100886.44;4940789;29;20031;-66
2022/09/10 09:25:08;;;;;;;10.80;4.25;;;;;;;23.27;53.92;100895.06;4941086;29;20017;-67
2022/09/10 09:27:35;;;;;;;11.18;4.20;;;;;;;23.28;53.44;100895.91;4924988;29;20016;-66
2022/09/10 09:30:05;;;;;;;9.30;5.25;;;;;;;23.36;53.43;100893.81;4924774;29;20022;-67
2022/09/10 09:32:33;;;;;;;8.07;5.32;;;;;;;23.47;53.70;100892.38;4944011;29;20016;-67
2022/09/10 09:35:18;;;;;;;9.05;4.53;;;;;;;23.47;53.06;100887.75;4943979;29;20051;-66
2022/09/10 09:37:47;;;;;;;8.50;5.30;;;;;;;23.48;53.53;100883.94;4943951;29;20035;-66
2022/09/10 09:40:29;;;;;;;7.22;4.28;;;;;;;23.55;53.00;100890.25;4944219;29;20087;-67
2022/09/10 09:42:57;;;;;;;7.80;4.43;;;;;;;23.61;53.94;100888.56;4943836;29;20012;-66
2022/09/10 09:45:27;;;;;;;8.98;4.30;;;;;;;23.66;53.69;100886.88;4944367;29;20026;-66
2022/09/10 09:47:53;;;;;;;6.32;4.03;;;;;;;23.71;53.11;100883.50;4943829;29;20036;-66
2022/09/10 09:50:19;;;;;;;7.88;4.95;;;;;;;23.69;53.47;100875.50;4943736;29;20027;-65
2022/09/10 09:52:45;;;;;;;10.57;4.70;;;;;;;23.66;53.69;100886.88;4943713;29;20048;-66
2022/09/10 09:55:20;;;;;;;7.40;4.28;;;;;;;23.64;53.79;100889.00;4944008;29;20036;-66
2022/09/10 09:57:46;;;;;;;7.03;4.60;;;;;;;23.61;53.35;100894.88;4943651;29;20012;-66
2022/09/10 10:00:35;;;;;;;10.32;5.13;;;;;;;23.60;53.42;100895.94;4944067;29;20039;-66
2022/09/10 10:03:14;;;;;;;8.20;4.13;;;;;;;23.60;53.32;100897.81;4943465;29;20020;-66
2022/09/10 10:05:41;;;;;;;11.52;4.95;;;;;;;23.61;52.74;100894.88;4943973;29;20035;-66
2022/09/10 10:08:27;;;;;;;7.03;4.18;;;;;;;23.61;53.16;100900.34;4943967;29;20020;-66
2022/09/10 10:10:53;;;;;;;9.25;4.50;;;;;;;23.61;53.22;100896.78;4943505;29;20048;-66
2022/09/10 10:13:22;;;;;;;7.22;4.40;;;;;;;23.60;53.25;100890.47;4943243;29;20063;-66
2022/09/10 10:15:48;;;;;;;6.30;4.53;;;;;;;23.63;53.01;100898.25;4943213;29;20032;-64
2022/09/10 10:18:30;;;;;;;6.72;4.45;;;;;;;23.69;53.05;100897.41;4943735;29;20048;-65
2022/09/10 10:21:14;;;;;;;8.63;3.78;;;;;;;23.83;52.37;100898.22;4927576;29;20104;-67
2022/09/10 10:23:40;;;;;;;12.25;5.25;;;;;;;23.91;52.46;100905.34;4943611;29;20024;-65
2022/09/10 10:26:20;;;;;;;6.88;4.15;;;;;;;24.02;52.94;100899.19;4943614;29;20019;-66
2022/09/10 10:28:46;;;;;;;8.50;4.20;;;;;;;24.08;51.97;100898.34;4943535;29;20048;-65
2022/09/10 10:31:11;;;;;;;6.63;4.20;;;;;;;24.11;52.77;100900.69;4943274;29;20059;-67
2022/09/10 10:33:52;;;;;;;5.30;4.10;;;;;;;24.10;52.26;100907.19;4942936;29;20016;-65
2022/09/10 10:36:26;;;;;;;9.63;4.75;;;;;;;24.08;51.72;100901.94;4942897;29;20023;-67
2022/09/10 10:39:03;;;;;;;5.53;4.30;;;;;;;24.07;52.17;100905.72;4943252;29;20035;-66
2022/09/10 10:41:38;;;;;;;7.20;4.72;;;;;;;24.09;52.09;100909.09;4926945;29;20020;-67
2022/09/10 10:44:36;;;;;;;9.02;5.38;;;;;;;24.12;52.15;100914.16;4942895;29;20016;-67
2022/09/10 10:47:26;;;;;;;7.95;4.65;;;;;;;24.22;51.95;100902.75;4932205;29;20036;-67
2022/09/10 10:49:59;;;;;;;7.03;4.57;;;;;;;24.25;51.89;100910.53;4942611;29;20052;-66
2022/09/10 10:53:15;;;;;;;6.35;4.15;;;;;;;24.22;52.01;100908.22;4942619;29;20025;-65
2022/09/10 10:55:46;;;;;;;9.05;4.63;;;;;;;24.20;51.97;100913.09;4923177;29;20047;-68
2022/09/10 10:58:17;;;;;;;10.65;5.22;;;;;;;24.19;52.54;100914.13;4939918;29;20084;-66
2022/09/10 11:00:50;;;;;;;7.30;4.82;;;;;;;24.19;51.75;100900.44;4943011;29;20020;-68
2022/09/10 11:03:18;;;;;;;;;;;;;;;24.19;51.85;100914.13;4942763;29;20035;-66
2022/09/10 11:05:47;;;;;;;10.20;5.00;;;;;;;24.19;52.58;100908.66;4942905;29;19903;-67
2022/09/10 11:08:26;;;;;;;8.93;4.88;;;;;;;24.17;51.79;100903.41;4942379;29;20044;-66
2022/09/10 11:10:57;;;;;;;8.30;4.63;;;;;;;24.11;52.03;100908.91;4942065;29;20024;-67
2022/09/10 11:13:42;;;;;;;7.25;4.72;;;;;;;24.05;52.10;100909.72;4937198;29;20034;-67
2022/09/10 11:16:14;;;;;;;9.13;5.25;;;;;;;23.95;52.88;100917.56;4935990;29;20028;-69
2022/09/10 11:19:02;;;;;;;7.95;4.78;;;;;;;23.90;52.36;100920.09;4935279;29;20028;-68
2022/09/10 11:21:33;;;;;;;5.72;4.35;;;;;;;23.89;52.95;100918.41;4938632;29;20011;-69
2022/09/10 11:24:12;;;;;;;11.38;5.82;;;;;;;23.89;52.10;100919.25;4941867;29;20020;-69
2022/09/10 11:26:40;;;;;;;7.50;5.85;;;;;;;23.93;52.92;100911.44;4942391;29;20071;-69
2022/09/10 11:29:24;;;;;;;9.48;5.28;;;;;;;23.99;52.95;100919.63;4942086;29;20020;-66
2022/09/10 11:32:13;;;;;;;11.15;5.20;;;;;;;24.04;52.49;100910.75;4942401;29;20032;-68
2022/09/10 11:34:57;;;;;;;11.20;4.80;;;;;;;24.03;52.99;100909.09;4941441;29;20056;-67
2022/09/10 11:37:51;;;;;;;8.18;5.25;;;;;;;24.02;52.81;100923.84;4937345;29;20375;-70